Time;durP1;ratioP1;P1;durP2;ratioP2;P2;SDS_P1;SDS_P2;PMS_P1;PMS_P2;Temp;Humidity;BMP_temperature;BMP_pressure;BME280_temperature;BME280_humidity;BME280_pressure;Samples;Min_cycle;Max_cycle;Signal;HPM_P1;HPM_P2
2022/09/24 00:00:18;;;;;;;7.85;7.07;;;13.20;99.90;;;;;;5025231;28;20218;-63
2022/09/24 00:02:44;;;;;;;9.50;6.63;;;13.10;99.90;;;;;;5025979;28;20190;-62
2022/09/24 00:05:09;;;;;;;8.70;7.83;;;13.10;99.90;;;;;;5032397;28;20266;-63
2022/09/24 00:07:35;;;;;;;8.40;7.50;;;13.00;99.90;;;;;;5030064;28;20652;-62
2022/09/24 00:10:01;;;;;;;8.53;7.80;;;13.20;99.90;;;;;;5024357;28;20581;-62
2022/09/24 00:12:27;;;;;;;8.25;7.55;;;13.10;99.90;;;;;;5025580;28;20209;-63
2022/09/24 00:14:53;;;;;;;9.88;7.07;;;13.00;99.90;;;;;;5027035;28;20200;-63
2022/09/24 00:17:18;;;;;;;11.80;7.50;;;13.30;99.90;;;;;;5027884;28;20186;-64
2022/09/24 00:19:44;;;;;;;7.57;6.90;;;13.10;99.90;;;;;;5027338;28;20241;-63
2022/09/24 00:22:09;;;;;;;8.97;7.47;;;13.10;99.90;;;;;;5026552;28;20189;-63
2022/09/24 00:27:19;;;;;;;8.55;7.80;;;13.10;99.90;;;;;;5027957;28;20669;-64
2022/09/24 00:29:44;;;;;;;9.60;7.47;;;13.20;99.90;;;;;;5032027;28;20213;-63
2022/09/24 00:32:12;;;;;;;7.60;6.93;;;13.00;99.90;;;;;;5029136;28;20182;-62
2022/09/24 00:34:37;;;;;;;7.72;7.00;;;12.90;99.90;;;;;;5029003;28;20221;-64
2022/09/24 00:37:03;;;;;;;7.73;7.03;;;13.20;99.90;;;;;;5032636;28;20268;-63
2022/09/24 00:39:29;;;;;;;7.40;6.70;;;13.10;99.90;;;;;;5025996;28;20178;-63
2022/09/24 00:41:54;;;;;;;7.00;6.40;;;13.20;99.90;;;;;;5030506;28;20199;-62
2022/09/24 00:44:53;;;;;;;7.60;6.97;;;13.10;99.90;;;;;;5030177;28;20208;-63
2022/09/24 00:47:29;;;;;;;7.50;6.72;;;13.00;99.90;;;;;;5029726;28;20444;-64
2022/09/24 00:50:12;;;;;;;8.13;7.25;;;12.90;99.90;;;;;;5031600;28;20208;-64
2022/09/24 00:52:44;;;;;;;8.60;7.75;;;12.80;99.90;;;;;;5049789;28;20181;-63
2022/09/24 00:55:10;;;;;;;8.02;6.82;;;13.00;99.90;;;;;;5029736;28;20206;-63
2022/09/24 00:57:39;;;;;;;8.50;7.70;;;13.20;99.90;;;;;;5033512;28;20188;-64
2022/09/24 01:00:06;;;;;;;8.02;6.90;;;13.10;99.90;;;;;;5028447;28;20555;-63
2022/09/24 01:02:36;;;;;;;7.78;7.07;;;12.60;99.90;;;;;;5034612;28;20603;-63
2022/09/24 01:05:02;;;;;;;8.18;7.47;;;13.00;99.90;;;;;;5026133;28;20202;-63
2022/09/24 01:07:27;;;;;;;8.00;7.30;;;12.80;99.90;;;;;;5025864;28;20659;-63
2022/09/24 01:09:53;;;;;;;8.27;7.50;;;13.00;99.90;;;;;;5032087;28;20224;-63
2022/09/24 01:12:34;;;;;;;7.50;6.90;;;12.90;99.90;;;;;;5035546;28;20555;-63
2022/09/24 01:15:00;;;;;;;7.95;7.28;;;13.00;99.90;;;;;;5025935;28;20198;-63
2022/09/24 01:17:34;;;;;;;8.23;7.50;;;13.00;99.90;;;;;;5027781;28;20209;-64
2022/09/24 01:20:21;;;;;;;8.00;7.30;;;13.00;99.90;;;;;;5030796;28;20478;-63
2022/09/24 01:23:08;;;;;;;8.30;7.63;;;12.90;99.90;;;;;;5031048;28;20190;-62
2022/09/24 01:25:47;;;;;;;8.25;7.55;;;13.10;99.90;;;;;;5022175;28;20234;-63
2022/09/24 01:28:31;;;;;;;7.80;7.10;;;13.10;99.90;;;;;;5030539;28;20217;-64
2022/09/24 01:31:02;;;;;;;8.77;7.97;;;12.80;99.90;;;;;;5029068;28;20206;-63
2022/09/24 01:33:31;;;;;;;9.60;8.60;;;12.90;99.90;;;;;;5025864;28;20182;-64
2022/09/24 01:36:03;;;;;;;7.93;7.20;;;12.80;99.90;;;;;;5025911;28;20221;-63
2022/09/24 01:38:34;;;;;;;8.50;7.70;;;12.50;99.90;;;;;;5026274;28;20175;-62
2022/09/24 01:41:02;;;;;;;9.15;8.32;;;12.80;99.90;;;;;;5031048;28;20197;-63
2022/09/24 01:43:29;;;;;;;10.85;8.82;;;12.80;99.90;;;;;;5025787;28;20202;-63
2022/09/24 01:45:57;;;;;;;10.02;7.57;;;12.60;99.90;;;;;;5031915;28;20205;-63
2022/09/24 01:48:24;;;;;;;8.60;7.80;;;12.80;99.90;;;;;;5033824;28;20198;-63
2022/09/24 01:51:15;;;;;;;9.20;8.20;;;12.70;99.90;;;;;;5025803;28;20214;-63
2022/09/24 01:54:09;;;;;;;8.45;7.65;;;12.80;99.90;;;;;;5031491;28;20274;-63
2022/09/24 01:56:43;;;;;;;9.77;7.70;;;13.10;99.90;;;;;;4996828;28;20297;-63
2022/09/24 01:59:16;;;;;;;9.55;7.65;;;12.90;99.90;;;;;;5032064;28;20203;-63
2022/09/24 02:01:55;;;;;;;8.65;7.93;;;12.80;99.90;;;;;;5029070;28;20185;-64
2022/09/24 02:04:24;;;;;;;9.57;7.75;;;12.70;99.90;;;;;;5025406;28;20205;-63
2022/09/24 02:07:13;;;;;;;7.47;6.78;;;12.70;99.90;;;;;;5027739;28;20182;-63
2022/09/24 02:09:42;;;;;;;8.02;7.22;;;12.40;99.90;;;;;;5029694;28;20259;-63
2022/09/24 02:12:07;;;;;;;7.30;6.70;;;12.60;99.90;;;;;;5044770;28;20190;-63
2022/09/24 02:14:41;;;;;;;7.03;6.40;;;12.50;99.90;;;;;;5028361;28;20206;-63
2022/09/24 02:17:09;;;;;;;8.27;7.47;;;12.60;99.90;;;;;;5030348;28;20198;-63
2022/09/24 02:19:38;;;;;;;8.07;6.95;;;12.40;99.90;;;;;;5030321;28;20189;-63
2022/09/24 02:22:05;;;;;;;8.73;7.90;;;12.30;99.90;;;;;;5029400;28;20197;-64
2022/09/24 02:24:46;;;;;;;10.18;6.60;;;12.40;99.90;;;;;;5031828;28;20647;-63
2022/09/24 02:27:12;;;;;;;7.43;6.72;;;12.60;99.90;;;;;;5026045;28;20206;-63
2022/09/24 02:29:38;;;;;;;7.60;7.00;;;12.40;99.90;;;;;;5031978;28;20202;-63
2022/09/24 02:32:06;;;;;;;7.70;7.00;;;12.70;99.90;;;;;;5031940;28;20445;-63
2022/09/24 02:34:37;;;;;;;8.02;7.28;;;12.40;99.90;;;;;;5030159;28;20724;-63
2022/09/24 02:37:08;;;;;;;8.05;7.32;;;12.40;99.90;;;;;;5026850;28;20239;-62
2022/09/24 02:39:35;;;;;;;8.45;7.45;;;12.20;99.90;;;;;;5030504;28;20190;-63
2022/09/24 02:42:02;;;;;;;8.30;7.60;;;12.30;99.90;;;;;;5028447;28;20371;-63
2022/09/24 02:44:29;;;;;;;8.52;7.50;;;12.60;99.90;;;;;;5031380;28;20210;-63
2022/09/24 02:46:55;;;;;;;9.32;8.43;;;12.50;99.90;;;;;;5031517;28;20182;-63
2022/09/24 02:49:21;;;;;;;8.93;7.70;;;12.40;99.90;;;;;;5022192;28;20302;-64
2022/09/24 02:51:46;;;;;;;8.77;7.97;;;12.40;99.90;;;;;;5029362;28;20197;-64
2022/09/24 02:54:12;;;;;;;8.53;7.57;;;12.10;99.90;;;;;;5031741;28;20224;-62
2022/09/24 02:56:38;;;;;;;9.27;8.37;;;12.30;99.90;;;;;;5032136;28;20188;-63
2022/09/24 02:59:04;;;;;;;8.93;8.07;;;12.60;99.90;;;;;;5026846;28;20265;-63
2022/09/24 03:01:31;;;;;;;8.90;7.83;;;12.30;99.90;;;;;;5027644;28;20497;-63
2022/09/24 03:03:57;;;;;;;9.02;8.32;;;12.70;99.90;;;;;;5034133;28;20429;-63
2022/09/24 03:06:23;;;;;;;8.02;7.35;;;12.80;99.90;;;;;;5034046;28;20182;-63
2022/09/24 03:08:50;;;;;;;10.18;7.60;;;12.50;99.90;;;;;;5020842;28;20218;-64
2022/09/24 03:11:16;;;;;;;8.23;7.32;;;12.70;99.90;;;;;;5028791;28;20634;-64
2022/09/24 03:13:41;;;;;;;8.50;7.80;;;12.60;99.90;;;;;;5029936;28;20183;-64
2022/09/24 03:16:07;;;;;;;7.17;6.53;;;12.80;99.90;;;;;;5034464;28;20206;-63
2022/09/24 03:18:33;;;;;;;9.33;7.27;;;12.50;99.90;;;;;;5030401;28;20246;-64
2022/09/24 03:21:02;;;;;;;7.57;6.88;;;12.50;99.90;;;;;;5029611;28;20194;-64
2022/09/24 03:23:27;;;;;;;9.25;7.20;;;12.60;99.90;;;;;;5029708;28;20224;-63
2022/09/24 03:25:54;;;;;;;8.37;7.67;;;12.70;99.90;;;;;;5021574;28;20214;-63
2022/09/24 03:28:20;;;;;;;8.25;7.55;;;12.60;99.90;;;;;;5031973;28;20205;-63
2022/09/24 03:30:58;;;;;;;8.60;7.65;;;12.50;99.90;;;;;;5027003;28;20233;-63
2022/09/24 03:33:33;;;;;;;8.20;7.50;;;12.60;99.90;;;;;;5028705;28;20182;-64
2022/09/24 03:36:06;;;;;;;8.77;7.97;;;12.70;99.90;;;;;;5030429;28;20781;-63
2022/09/24 03:38:32;;;;;;;9.48;7.85;;;12.40;99.90;;;;;;5028659;28;20193;-63
2022/09/24 03:40:58;;;;;;;9.45;8.55;;;12.50;99.90;;;;;;5023797;28;20623;-64
2022/09/24 03:43:24;;;;;;;8.10;7.17;;;12.50;99.90;;;;;;5031392;28;20217;-63
2022/09/24 03:45:50;;;;;;;9.18;7.70;;;12.50;99.90;;;;;;5030640;28;21008;-63
2022/09/24 03:48:16;;;;;;;8.10;7.40;;;12.70;99.90;;;;;;5029476;28;20186;-64
2022/09/24 03:50:42;;;;;;;9.00;8.10;;;12.50;99.90;;;;;;5030388;28;20209;-63
2022/09/24 03:53:08;;;;;;;7.87;7.17;;;12.40;99.90;;;;;;5022628;28;20269;-63
2022/09/24 03:55:34;;;;;;;9.70;7.13;;;12.50;99.90;;;;;;5015424;28;20214;-64
2022/09/24 03:58:00;;;;;;;14.17;8.30;;;12.60;99.90;;;;;;5021405;28;20403;-63
2022/09/24 04:00:26;;;;;;;7.83;7.10;;;12.50;99.90;;;;;;5027974;28;20194;-63
2022/09/24 04:02:51;;;;;;;8.75;7.45;;;12.70;99.90;;;;;;5030539;28;20216;-63
2022/09/24 04:05:17;;;;;;;8.93;8.07;;;12.60;99.90;;;;;;5031776;28;20245;-63
2022/09/24 04:07:43;;;;;;;8.93;8.23;;;12.70;99.90;;;;;;5032780;28;20605;-64
2022/09/24 04:10:09;;;;;;;8.52;7.72;;;13.10;99.90;;;;;;5028494;28;20341;-63
2022/09/24 04:12:34;;;;;;;9.40;8.43;;;13.00;99.90;;;;;;5026135;28;20175;-64
2022/09/24 04:15:01;;;;;;;11.87;8.30;;;12.60;99.90;;;;;;5029373;28;20194;-63
2022/09/24 04:17:30;;;;;;;8.88;8.02;;;13.10;99.90;;;;;;5030560;28;20178;-63
2022/09/24 04:19:58;;;;;;;8.27;7.47;;;12.80;99.90;;;;;;5017959;28;20756;-64
2022/09/24 04:22:27;;;;;;;7.80;7.13;;;13.10;99.90;;;;;;5013408;28;20189;-64
2022/09/24 04:24:56;;;;;;;7.10;6.50;;;13.00;99.90;;;;;;5029376;28;20209;-63
2022/09/24 04:27:22;;;;;;;7.70;7.10;;;13.00;99.90;;;;;;5019234;28;20182;-63
2022/09/24 04:29:48;;;;;;;7.93;7.23;;;12.90;99.90;;;;;;5028839;28;20208;-64
2022/09/24 04:32:13;;;;;;;7.73;7.10;;;13.00;99.90;;;;;;5028244;28;20269;-63
2022/09/24 04:34:39;;;;;;;11.60;8.17;;;13.10;99.90;;;;;;5030147;28;20308;-63
2022/09/24 04:37:04;;;;;;;7.07;6.47;;;13.20;99.90;;;;;;5029102;28;20323;-63
2022/09/24 04:39:30;;;;;;;9.03;7.90;;;13.00;99.90;;;;;;5027271;28;20218;-63
2022/09/24 04:41:56;;;;;;;9.50;8.60;;;13.30;99.90;;;;;;5022011;28;20647;-63
2022/09/24 04:44:22;;;;;;;11.40;8.43;;;13.30;99.90;;;;;;5031385;28;20288;-63
2022/09/24 04:46:48;;;;;;;10.17;9.10;;;13.30;99.90;;;;;;5031214;28;20289;-63
2022/09/24 04:49:14;;;;;;;9.00;8.23;;;13.30;99.90;;;;;;5030600;28;20559;-63
2022/09/24 04:51:39;;;;;;;8.90;7.67;;;13.10;99.90;;;;;;5031659;28;20433;-63
2022/09/24 04:54:05;;;;;;;8.70;7.90;;;13.10;99.90;;;;;;5033537;28;20189;-63
2022/09/24 04:56:31;;;;;;;7.80;7.10;;;13.20;99.90;;;;;;5022467;28;20195;-63
2022/09/24 04:58:57;;;;;;;8.20;7.47;;;13.00;99.90;;;;;;5025904;28;20178;-63
2022/09/24 05:01:23;;;;;;;7.40;6.70;;;13.20;99.90;;;;;;5025899;28;20178;-63
2022/09/24 05:03:49;;;;;;;8.45;7.65;;;13.40;99.90;;;;;;5030242;28;20185;-63
2022/09/24 05:06:14;;;;;;;9.00;8.20;;;13.20;99.90;;;;;;5027544;28;20198;-63
2022/09/24 05:08:40;;;;;;;8.43;7.57;;;13.00;99.90;;;;;;5029841;28;20182;-63
2022/09/24 05:11:06;;;;;;;8.60;7.80;;;13.00;99.90;;;;;;5031571;28;20422;-63
2022/09/24 05:13:33;;;;;;;7.07;6.47;;;12.90;99.90;;;;;;5028395;28;20193;-63
2022/09/24 05:15:59;;;;;;;8.05;7.25;;;12.80;99.90;;;;;;5033536;28;20624;-63
2022/09/24 05:18:26;;;;;;;7.90;7.20;;;12.80;99.90;;;;;;5031058;28;20178;-64
2022/09/24 05:20:51;;;;;;;7.38;6.43;;;12.80;99.90;;;;;;5033091;28;20545;-63
2022/09/24 05:23:17;;;;;;;8.30;7.60;;;12.90;99.90;;;;;;5032277;28;20265;-63
2022/09/24 05:28:27;;;;;;;8.38;7.57;;;12.80;99.90;;;;;;5031704;28;20244;-64
2022/09/24 05:30:56;;;;;;;8.30;7.50;;;13.10;99.90;;;;;;5032077;28;20217;-63
2022/09/24 05:33:22;;;;;;;9.35;8.45;;;12.80;99.90;;;;;;5032736;28;20179;-65
2022/09/24 05:35:53;;;;;;;8.97;8.07;;;13.00;99.90;;;;;;5026464;28;20285;-64
2022/09/24 05:38:19;;;;;;;9.27;7.80;;;13.00;99.90;;;;;;5027178;28;20604;-64
2022/09/24 05:40:48;;;;;;;9.03;8.20;;;13.10;99.90;;;;;;5024244;28;20249;-64
2022/09/24 05:43:14;;;;;;;9.07;8.27;;;13.00;99.90;;;;;;5029269;28;20274;-64
2022/09/24 05:45:41;;;;;;;8.30;7.50;;;13.00;99.90;;;;;;5032183;28;20256;-64
2022/09/24 05:48:07;;;;;;;8.77;8.02;;;12.90;99.90;;;;;;5026798;28;20193;-63
2022/09/24 05:50:33;;;;;;;9.03;8.13;;;12.90;99.90;;;;;;5037622;28;20201;-63
2022/09/24 05:53:00;;;;;;;9.20;7.93;;;12.80;99.90;;;;;;5032579;28;20178;-64
2022/09/24 05:55:26;;;;;;;10.35;7.45;;;13.00;99.90;;;;;;5029445;28;20699;-64
2022/09/24 05:57:52;;;;;;;12.60;7.97;;;13.00;99.90;;;;;;5034221;28;20230;-63
2022/09/24 06:00:17;;;;;;;8.50;7.70;;;12.90;99.90;;;;;;5034103;28;20885;-63
2022/09/24 06:02:43;;;;;;;9.20;8.40;;;13.10;99.90;;;;;;5035384;28;20255;-62
2022/09/24 06:05:09;;;;;;;10.47;7.47;;;13.30;99.90;;;;;;5029152;28;20718;-64
2022/09/24 06:07:35;;;;;;;8.00;7.30;;;13.00;99.90;;;;;;5032154;28;20690;-63
2022/09/24 06:10:00;;;;;;;9.07;8.27;;;13.20;99.90;;;;;;5034647;28;20238;-63
2022/09/24 06:12:26;;;;;;;8.50;7.73;;;13.50;99.90;;;;;;5017949;28;20183;-63
2022/09/24 06:14:54;;;;;;;9.02;7.65;;;13.20;99.90;;;;;;5031530;28;20222;-63
2022/09/24 06:17:20;;;;;;;8.80;8.05;;;13.30;99.90;;;;;;5032638;28;20202;-63
2022/09/24 06:19:46;;;;;;;10.00;8.10;;;13.60;99.90;;;;;;5024668;28;20217;-63
2022/09/24 06:22:12;;;;;;;8.87;8.17;;;14.00;99.90;;;;;;5025657;28;20265;-63
2022/09/24 06:24:38;;;;;;;11.85;9.32;;;14.30;99.90;;;;;;5022471;28;20222;-63
2022/09/24 06:27:04;;;;;;;9.73;8.82;;;13.90;99.90;;;;;;5026464;28;20182;-62
2022/09/24 06:29:30;;;;;;;9.87;8.97;;;14.10;99.90;;;;;;5031597;28;20918;-63
2022/09/24 06:31:56;;;;;;;8.43;7.60;;;13.70;99.90;;;;;;5026052;28;20194;-63
2022/09/24 06:34:22;;;;;;;10.30;8.23;;;13.80;99.90;;;;;;5030348;28;20220;-63
2022/09/24 06:36:47;;;;;;;9.57;8.53;;;14.50;99.90;;;;;;5029349;28;20181;-55
2022/09/24 06:39:13;;;;;;;10.30;9.20;;;13.90;99.90;;;;;;5031139;28;20478;-56
2022/09/24 06:41:38;;;;;;;9.53;8.70;;;14.10;99.90;;;;;;5029647;28;20218;-55
2022/09/24 06:44:04;;;;;;;9.73;8.83;;;14.50;99.90;;;;;;5038545;28;20646;-56
2022/09/24 06:46:29;;;;;;;9.17;8.37;;;14.50;99.90;;;;;;5031689;28;20174;-56
2022/09/24 06:48:55;;;;;;;10.70;9.70;;;14.50;99.90;;;;;;5030129;28;20619;-56
2022/09/24 06:51:21;;;;;;;10.80;9.43;;;14.50;99.90;;;;;;5033152;28;20312;-56
2022/09/24 06:53:50;;;;;;;9.50;8.60;;;14.50;99.90;;;;;;5040970;28;20173;-55
2022/09/24 06:56:16;;;;;;;9.70;8.80;;;14.20;99.90;;;;;;5030654;28;20484;-56
2022/09/24 06:58:42;;;;;;;12.17;10.93;;;14.30;99.90;;;;;;5033841;28;20202;-55
2022/09/24 07:01:07;;;;;;;9.93;9.03;;;14.30;99.90;;;;;;5033678;28;20194;-55
2022/09/24 07:03:33;;;;;;;8.60;7.90;;;14.70;99.90;;;;;;5026846;28;20362;-55
2022/09/24 07:06:04;;;;;;;9.95;9.15;;;14.60;99.90;;;;;;5030748;28;20555;-55
2022/09/24 07:08:30;;;;;;;11.07;9.48;;;14.70;99.90;;;;;;5028259;28;20186;-56
2022/09/24 07:10:55;;;;;;;10.02;9.00;;;14.70;99.90;;;;;;5028001;28;20683;-55
2022/09/24 07:13:22;;;;;;;9.98;9.18;;;14.60;99.90;;;;;;5040671;28;20212;-56
2022/09/24 07:15:50;;;;;;;9.17;8.37;;;14.80;99.90;;;;;;5030109;28;20209;-55
2022/09/24 07:18:17;;;;;;;10.90;8.68;;;14.80;99.90;;;;;;5030159;28;20183;-56
2022/09/24 07:20:42;;;;;;;9.57;8.70;;;14.90;99.90;;;;;;5029742;28;20724;-56
2022/09/24 07:23:10;;;;;;;10.87;9.87;;;15.00;99.90;;;;;;5038101;28;20190;-57
2022/09/24 07:25:37;;;;;;;10.70;9.10;;;15.10;99.90;;;;;;5028117;28;20206;-57
2022/09/24 07:28:04;;;;;;;9.70;8.80;;;14.60;99.90;;;;;;5028115;28;20174;-56
2022/09/24 07:30:32;;;;;;;10.15;9.13;;;14.60;99.90;;;;;;5028271;28;20219;-55
2022/09/24 07:32:58;;;;;;;10.43;9.35;;;15.00;99.90;;;;;;5017761;28;20182;-56
2022/09/24 07:35:27;;;;;;;9.87;8.93;;;14.90;99.90;;;;;;5030133;28;20694;-56
2022/09/24 07:38:01;;;;;;;9.13;8.32;;;15.10;99.90;;;;;;5028965;28;20515;-56
2022/09/24 07:40:28;;;;;;;9.02;8.20;;;15.20;99.90;;;;;;5030707;28;20194;-57
2022/09/24 07:42:54;;;;;;;10.27;9.27;;;15.50;99.90;;;;;;5032967;28;20197;-57
2022/09/24 07:45:26;;;;;;;10.10;9.20;;;15.50;99.90;;;;;;5031324;28;20251;-57
2022/09/24 07:48:11;;;;;;;9.90;8.90;;;15.80;99.90;;;;;;5032747;28;21148;-55
2022/09/24 07:50:39;;;;;;;9.98;9.05;;;15.90;99.90;;;;;;5027466;28;20225;-56
2022/09/24 07:53:05;;;;;;;9.75;8.85;;;15.60;99.90;;;;;;5027383;28;20185;-56
2022/09/24 07:55:30;;;;;;;9.80;8.85;;;15.70;99.90;;;;;;5029302;28;20205;-57
2022/09/24 07:57:56;;;;;;;10.43;9.40;;;15.80;99.90;;;;;;5027964;28;20285;-55
2022/09/24 08:00:23;;;;;;;9.80;8.90;;;15.70;99.90;;;;;;5022741;28;20191;-61
2022/09/24 08:02:50;;;;;;;11.30;10.30;;;15.60;99.90;;;;;;5033475;28;20272;-59
2022/09/24 08:05:16;;;;;;;10.10;9.20;;;16.00;99.90;;;;;;5033834;28;20206;-60
2022/09/24 08:07:49;;;;;;;10.45;8.90;;;16.10;99.90;;;;;;5028907;28;20208;-60
2022/09/24 08:10:15;;;;;;;10.07;9.10;;;16.50;99.90;;;;;;5025218;28;20209;-62
2022/09/24 08:12:41;;;;;;;11.37;10.20;;;16.40;99.90;;;;;;5032823;28;20265;-60
2022/09/24 08:15:07;;;;;;;8.97;8.13;;;16.40;99.90;;;;;;5034539;28;20198;-61
2022/09/24 08:17:32;;;;;;;13.03;10.10;;;16.60;99.90;;;;;;5030536;28;20556;-66
2022/09/24 08:19:58;;;;;;;9.47;8.43;;;16.40;99.90;;;;;;5022136;28;20523;-65
2022/09/24 08:22:25;;;;;;;9.87;8.87;;;16.40;99.90;;;;;;5025490;28;20273;-60
2022/09/24 08:24:51;;;;;;;12.38;9.77;;;16.40;99.90;;;;;;5027579;28;20209;-59
2022/09/24 08:27:18;;;;;;;9.57;8.88;;;16.30;99.90;;;;;;5030298;28;20194;-59
2022/09/24 08:29:44;;;;;;;9.93;8.90;;;16.70;99.90;;;;;;5024915;28;20438;-60
2022/09/24 08:32:09;;;;;;;10.38;9.38;;;16.60;99.90;;;;;;5030037;28;20225;-60
2022/09/24 08:34:37;;;;;;;9.27;8.37;;;16.80;99.90;;;;;;5025303;28;20707;-61
2022/09/24 08:37:04;;;;;;;9.68;8.77;;;17.00;99.90;;;;;;5034215;28;20182;-60
2022/09/24 08:39:31;;;;;;;8.80;8.13;;;16.80;99.90;;;;;;5031501;28;20186;-61
2022/09/24 08:42:05;;;;;;;11.18;10.18;;;17.20;99.90;;;;;;5024987;28;20636;-60
2022/09/24 08:47:47;;;;;;;11.48;10.38;;;17.60;99.90;;;;;;5029204;28;20682;-60
2022/09/24 08:50:26;;;;;;;10.48;9.55;;;17.80;99.90;;;;;;5022658;28;20746;-61
2022/09/24 08:53:26;;;;;;;10.30;9.18;;;17.90;99.90;;;;;;5028322;28;20236;-61
2022/09/24 08:55:59;;;;;;;10.75;9.60;;;18.00;99.90;;;;;;5006131;28;20242;-64
2022/09/24 08:58:30;;;;;;;11.10;10.07;;;18.50;99.90;;;;;;5023402;28;20194;-61
2022/09/24 09:01:11;;;;;;;10.43;9.63;;;18.60;99.90;;;;;;5020912;28;20191;-62
2022/09/24 09:04:16;;;;;;;10.30;9.43;;;19.10;99.90;;;;;;5032131;28;20207;-62
2022/09/24 09:07:06;;;;;;;7.60;6.85;;;19.10;99.70;;;;;;5024829;28;20197;-61
2022/09/24 09:09:37;;;;;;;5.45;4.95;;;19.10;99.90;;;;;;5039884;28;20295;-60
2022/09/24 09:12:09;;;;;;;3.90;3.50;;;18.80;99.90;;;;;;5025250;28;20222;-67
2022/09/24 09:14:44;;;;;;;4.07;3.78;;;18.70;99.90;;;;;;5028864;28;20676;-65
2022/09/24 09:17:41;;;;;;;3.90;3.60;;;18.50;99.90;;;;;;5029472;28;20177;-67
2022/09/24 09:20:16;;;;;;;3.60;3.40;;;18.40;99.90;;;;;;5021084;28;20201;-66
2022/09/24 09:22:47;;;;;;;4.63;4.22;;;18.40;99.90;;;;;;5032064;28;20186;-63
2022/09/24 09:25:35;;;;;;;4.40;4.00;;;18.50;99.90;;;;;;5024758;28;20202;-62
2022/09/24 09:28:01;;;;;;;4.00;3.70;;;18.50;99.90;;;;;;5025885;28;20262;-61
2022/09/24 09:30:37;;;;;;;3.60;3.40;;;18.50;99.90;;;;;;5026955;28;20296;-61
2022/09/24 09:33:15;;;;;;;4.47;3.25;;;18.50;99.90;;;;;;5034373;28;20272;-61
2022/09/24 09:35:57;;;;;;;4.05;3.75;;;18.40;99.90;;;;;;5048562;28;20281;-62
2022/09/24 09:38:51;;;;;;;4.32;3.92;;;18.30;99.90;;;;;;5032529;28;20185;-67
2022/09/24 09:41:45;;;;;;;3.90;3.60;;;18.30;99.90;;;;;;5028872;28;20201;-58
2022/09/24 09:44:21;;;;;;;3.78;3.40;;;18.30;99.90;;;;;;5031471;28;20684;-63
2022/09/24 09:46:56;;;;;;;4.75;4.35;;;18.10;99.90;;;;;;5036548;28;20231;-64
2022/09/24 09:49:27;;;;;;;3.85;3.55;;;18.00;99.90;;;;;;5042144;28;20213;-65
2022/09/24 09:51:56;;;;;;;4.00;3.70;;;18.00;99.90;;;;;;5039103;28;20228;-62
2022/09/24 09:54:34;;;;;;;5.05;3.72;;;18.10;99.90;;;;;;5037694;28;20209;-64
2022/09/24 09:57:02;;;;;;;5.95;4.10;;;18.10;99.90;;;;;;5032040;28;20178;-63
2022/09/24 09:59:29;;;;;;;4.13;3.83;;;18.20;99.90;;;;;;5031448;28;20193;-65
2022/09/24 10:01:56;;;;;;;4.43;3.50;;;18.10;99.90;;;;;;5036172;28;20193;-67
2022/09/24 10:04:33;;;;;;;4.22;3.83;;;18.00;99.90;;;;;;5030603;28;20201;-64
2022/09/24 10:07:05;;;;;;;4.47;4.18;;;17.90;99.90;;;;;;5024788;28;20702;-65
2022/09/24 10:09:31;;;;;;;4.65;4.22;;;18.00;99.90;;;;;;5035948;28;20214;-63
2022/09/24 10:12:20;;;;;;;4.20;3.80;;;18.10;99.90;;;;;;5028439;28;20272;-69
2022/09/24 10:14:57;;;;;;;4.25;3.85;;;18.00;99.90;;;;;;5034382;28;20214;-64
2022/09/24 10:17:27;;;;;;;4.60;4.30;;;18.10;99.90;;;;;;5040340;28;20220;-69
2022/09/24 10:19:53;;;;;;;4.90;4.50;;;18.10;99.90;;;;;;5028896;28;20717;-68
2022/09/24 10:22:22;;;;;;;4.60;4.30;;;18.10;99.90;;;;;;5025600;28;20187;-67
2022/09/24 10:24:49;;;;;;;5.05;4.65;;;18.20;99.90;;;;;;5027329;28;20202;-68
2022/09/24 10:27:29;;;;;;;9.63;8.82;;;18.30;99.90;;;;;;5018535;28;20266;-67
2022/09/24 10:30:37;;;;;;;4.47;4.18;;;18.50;99.90;;;;;;5026539;28;20725;-70
2022/09/24 10:32:44;;;;;;;5.57;5.07;;;18.20;99.90;;;;;;5028203;28;20229;-61
2022/09/24 10:35:39;;;;;;;4.75;4.35;;;18.20;99.90;;;;;;5030084;28;20209;-61
2022/09/24 10:38:20;;;;;;;4.30;3.90;;;18.30;99.90;;;;;;5017074;28;20195;-62
2022/09/24 10:40:46;;;;;;;3.80;3.50;;;18.20;99.90;;;;;;5033845;28;20178;-61
2022/09/24 10:43:18;;;;;;;3.67;3.38;;;18.20;99.90;;;;;;5022828;28;20186;-58
2022/09/24 10:45:53;;;;;;;4.85;4.45;;;18.20;99.90;;;;;;5034659;28;20292;-57
2022/09/24 10:48:25;;;;;;;3.85;3.08;;;18.20;99.90;;;;;;5027770;28;20181;-59
2022/09/24 10:51:23;;;;;;;3.95;3.55;;;18.30;99.90;;;;;;5023580;28;20241;-57
2022/09/24 10:54:18;;;;;;;4.70;4.30;;;18.20;99.90;;;;;;5020121;28;20214;-59
2022/09/24 10:56:52;;;;;;;4.20;3.90;;;18.10;99.90;;;;;;5021353;28;20190;-58
2022/09/24 10:59:36;;;;;;;4.20;3.78;;;18.10;99.90;;;;;;5031541;28;20238;-58
2022/09/24 11:02:23;;;;;;;3.67;3.38;;;18.10;99.90;;;;;;5027405;28;20206;-59
2022/09/24 11:05:07;;;;;;;3.95;3.65;;;18.10;99.90;;;;;;5032061;28;20217;-59
2022/09/24 11:07:42;;;;;;;3.50;3.30;;;18.00;99.90;;;;;;5020811;28;20186;-56
2022/09/24 11:10:32;;;;;;;3.97;3.67;;;17.90;99.90;;;;;;5021103;28;20812;-59
2022/09/24 11:13:06;;;;;;;3.80;3.53;;;18.00;99.90;;;;;;5029733;28;20182;-58
2022/09/24 11:15:53;;;;;;;4.47;3.97;;;17.90;99.90;;;;;;5028160;28;20212;-56
2022/09/24 11:18:29;;;;;;;3.13;2.92;;;17.90;99.90;;;;;;5028595;28;20183;-56
2022/09/24 11:21:31;;;;;;;3.28;2.97;;;17.80;99.90;;;;;;5018435;28;20658;-58
2022/09/24 11:24:15;;;;;;;3.70;3.40;;;17.80;99.90;;;;;;5001885;28;20685;-56
2022/09/24 11:27:22;;;;;;;3.42;3.13;;;17.80;99.90;;;;;;5028327;28;20257;-57
2022/09/24 11:30:18;;;;;;;3.50;3.00;;;17.80;99.90;;;;;;5029346;28;20253;-58
2022/09/24 11:32:48;;;;;;;4.10;3.47;;;18.20;99.90;;;;;;5029162;28;20265;-57
2022/09/24 11:35:29;;;;;;;3.88;3.47;;;17.70;99.90;;;;;;5036160;28;20224;-58
2022/09/24 11:38:22;;;;;;;4.75;3.90;;;18.00;99.90;;;;;;5041195;28;20208;-59
2022/09/24 11:40:57;;;;;;;3.70;3.40;;;17.90;99.90;;;;;;5022703;28;20190;-59
2022/09/24 11:43:59;;;;;;;4.55;4.15;;;18.00;99.90;;;;;;5030631;28;20245;-59
2022/09/24 11:46:39;;;;;;;5.78;3.75;;;18.00;99.90;;;;;;5030173;28;20246;-58
2022/09/24 11:49:14;;;;;;;5.90;3.95;;;18.10;99.90;;;;;;5026595;28;20229;-59
2022/09/24 11:52:14;;;;;;;3.90;3.60;;;18.10;99.90;;;;;;5030150;28;20280;-58
2022/09/24 11:54:54;;;;;;;3.85;3.55;;;18.20;99.90;;;;;;5024719;28;20297;-57
2022/09/24 11:57:26;;;;;;;4.20;3.90;;;18.20;99.90;;;;;;5030041;28;20845;-60
2022/09/24 12:00:07;;;;;;;4.93;4.50;;;18.30;99.90;;;;;;5033179;28;20185;-58
2022/09/24 12:02:45;;;;;;;3.85;3.55;;;18.20;99.90;;;;;;5026077;28;20670;-58
2022/09/24 12:05:27;;;;;;;4.47;4.07;;;18.20;99.90;;;;;;5027545;28;20556;-59
2022/09/24 12:08:01;;;;;;;4.55;4.15;;;18.30;99.90;;;;;;5028774;28;20204;-58
2022/09/24 12:10:30;;;;;;;4.78;4.38;;;18.30;99.90;;;;;;5026612;28;20296;-59
2022/09/24 12:13:19;;;;;;;4.70;4.30;;;18.40;99.90;;;;;;5029098;28;20250;-61
2022/09/24 12:15:59;;;;;;;4.47;4.07;;;18.50;99.90;;;;;;5027108;28;20204;-58
2022/09/24 12:18:34;;;;;;;4.40;4.00;;;18.30;99.90;;;;;;5029598;28;20243;-59
2022/09/24 12:21:06;;;;;;;4.20;3.90;;;18.30;99.90;;;;;;5026814;28;20182;-59
2022/09/24 12:23:38;;;;;;;5.13;4.68;;;18.40;99.90;;;;;;5028762;28;20193;-58
2022/09/24 12:26:05;;;;;;;5.05;4.65;;;18.30;99.90;;;;;;5025128;28;22701;-58
2022/09/24 12:35:16;;;;;;;5.20;4.80;;;18.30;99.90;;;;;;5036413;28;20290;-60
2022/09/24 12:37:44;;;;;;;5.22;4.70;;;18.40;99.90;;;;;;5031177;28;20563;-59
2022/09/24 12:40:31;;;;;;;5.07;4.68;;;18.20;99.90;;;;;;5022094;28;20277;-61
2022/09/24 12:43:01;;;;;;;4.85;4.43;;;18.30;99.90;;;;;;5030380;28;20686;-58
2022/09/24 12:45:28;;;;;;;5.78;5.28;;;18.10;99.90;;;;;;5032066;28;20638;-60
2022/09/24 12:47:59;;;;;;;5.35;4.90;;;18.20;99.90;;;;;;5022286;28;20190;-59
2022/09/24 12:50:33;;;;;;;4.50;4.10;;;18.20;99.90;;;;;;5019673;28;20232;-60
2022/09/24 12:53:00;;;;;;;5.55;5.07;;;18.20;99.90;;;;;;5031484;28;20177;-61
2022/09/24 12:55:28;;;;;;;5.65;5.15;;;17.90;99.90;;;;;;5027481;28;20202;-60
2022/09/24 12:57:59;;;;;;;6.13;5.53;;;18.00;99.90;;;;;;5028389;28;20210;-60
2022/09/24 13:00:46;;;;;;;5.85;5.35;;;18.50;99.90;;;;;;5027674;28;20200;-60
2022/09/24 13:03:32;;;;;;;6.13;5.15;;;18.50;99.90;;;;;;5027996;28;20639;-62
2022/09/24 13:05:59;;;;;;;5.50;5.00;;;18.70;99.90;;;;;;5040987;28;20845;-61
2022/09/24 13:08:34;;;;;;;5.57;5.18;;;18.70;99.90;;;;;;5035429;28;20247;-61
2022/09/24 13:11:04;;;;;;;7.90;7.20;;;18.80;99.90;;;;;;5025548;28;20206;-62
2022/09/24 13:13:35;;;;;;;8.55;7.63;;;18.70;99.90;;;;;;5033547;28;20583;-63
2022/09/24 13:16:01;;;;;;;7.15;6.45;;;18.60;99.90;;;;;;5034029;28;20206;-65
2022/09/24 13:18:27;;;;;;;6.10;5.60;;;18.80;99.90;;;;;;5030040;28;20341;-66
2022/09/24 13:21:04;;;;;;;5.82;5.30;;;18.80;99.90;;;;;;5034844;28;20190;-67